Погода Рибейран-Бонитуна 2 недели

Сан-Паулу, Бразилия

25 июля-07 августа
  • 25июля
    Сегодня
    +12°
    +30°
    Ясно и безоблачно
    ВремяПогодаТемператураВлажностьДавлениеВетер, м/сВероятность осадков
    00:00Практически безоблачно+18°C42 %714 мм2.2 м/с5 %
    03:00Ясно и безоблачно+15°C55 %714 мм2.3 м/с5 %
    06:00Ясно и безоблачно+12°C65 %713 мм2.0 м/с5 %
    09:00Ясно и безоблачно+20°C40 %716 мм1.1 м/с5 %
    12:00Ясно и безоблачно+27°C25 %716 мм2.3 м/с5 %
    15:00Ясно и безоблачно+29°C24 %714 мм2.0 м/с5 %
    18:00Ясно и безоблачно+26°C31 %713 мм1.7 м/с5 %
    21:00Ясно и безоблачно+22°C38 %713 мм1.7 м/с5 %
  • 26июля
    Пятница
    +13°
    +30°
    Облачно с прояснениями
    ВремяПогодаТемператураВлажностьДавлениеВетер, м/сВероятность осадков
    00:00Ясно и безоблачно+18°C52 %712 мм1.7 м/с5 %
    03:00Ясно и безоблачно+14°C58 %711 мм1.8 м/с5 %
    06:00Ясно и безоблачно+13°C60 %711 мм2.2 м/с5 %
    09:00Практически безоблачно+21°C38 %714 мм1.7 м/с5 %
    12:00Облачно с прояснениями+28°C21 %714 мм2.1 м/с5 %
    15:00Облачно с прояснениями+30°C21 %712 мм1.7 м/с5 %
    18:00Небольшая облачность+25°C30 %712 мм1.8 м/с5 %
    21:00Облачно с прояснениями+20°C39 %713 мм1.5 м/с5 %
  • 27июля
    Суббота
    +14°
    +31°
    Небольшая облачность
    ВремяПогодаТемператураВлажностьДавлениеВетер, м/сВероятность осадков
    00:00Небольшая облачность+17°C48 %712 мм1.5 м/с5 %
    03:00Облачно с прояснениями+15°C49 %711 мм2.1 м/с5 %
    06:00Облачно с прояснениями+14°C56 %711 мм1.8 м/с5 %
    09:00Облачно с прояснениями+21°C35 %714 мм1.2 м/с5 %
    12:00Облачно с прояснениями+28°C22 %714 мм2.7 м/с5 %
    15:00Небольшая облачность+31°C21 %713 мм1.9 м/с5 %
    18:00Практически безоблачно+27°C28 %713 мм1.8 м/с5 %
    21:00Практически безоблачно+23°C34 %713 мм3.0 м/с5 %
  • 28июля
    Воскресенье
    +14°
    +33°
    Ясно и безоблачно
    ВремяПогодаТемператураВлажностьДавлениеВетер, м/сВероятность осадков
    00:00Ясно и безоблачно+19°C44 %713 мм1.9 м/с5 %
    03:00Практически безоблачно+17°C49 %712 мм1.9 м/с5 %
    06:00Небольшая облачность+15°C56 %712 мм1.9 м/с5 %
    09:00Ясно и безоблачно+22°C37 %714 мм1.3 м/с5 %
    12:00Ясно и безоблачно+30°C24 %714 мм3.9 м/с5 %
    15:00Ясно и безоблачно+32°C22 %712 мм3.1 м/с5 %
    18:00Ясно и безоблачно+29°C28 %712 мм2.3 м/с5 %
    21:00Ясно и безоблачно+23°C40 %712 мм1.5 м/с5 %
  • 29июля
    Понедельник
    +13°
    +33°
    Практически безоблачно
    ВремяПогодаТемператураВлажностьДавлениеВетер, м/сВероятность осадков
    00:00Ясно и безоблачно+20°C45 %712 мм2.0 м/с5 %
    03:00Ясно и безоблачно+18°C51 %711 мм1.8 м/с5 %
    06:00Ясно и безоблачно+15°C58 %711 мм1.8 м/с5 %
    09:00Ясно и безоблачно+23°C37 %713 мм2.0 м/с5 %
    12:00Ясно и безоблачно+30°C25 %714 мм4.1 м/с5 %
    15:00Практически безоблачно+33°C20 %712 мм4.0 м/с5 %
    18:00Практически безоблачно+29°C25 %712 мм2.3 м/с4 %
    21:00Ясно и безоблачно+21°C37 %712 мм4.4 м/с3 %
Мы используем cookies
Соглашаюсь